Time;durP1;ratioP1;P1;durP2;ratioP2;P2;SDS_P1;SDS_P2;PMS_P1;PMS_P2;Temp;Humidity;BMP_temperature;BMP_pressure;BME280_temperature;BME280_humidity;BME280_pressure;Samples;Min_cycle;Max_cycle;Signal;HPM_P1;HPM_P2
2023/09/12 11:59:07;;;;;;;14.57;9.20;;;;;;;27.39;49.87;98751.59;5124366;27;20699;-76
2023/09/12 12:01:34;;;;;;;10.23;9.10;;;;;;;27.40;50.08;98756.84;5122549;28;20044;-75
2023/09/12 12:04:00;;;;;;;14.65;11.02;;;;;;;27.26;46.86;98727.09;5123319;28;20113;-75
2023/09/12 12:06:29;;;;;;;11.77;8.98;;;;;;;27.21;46.13;98724.13;5122264;28;20268;-75
2023/09/12 12:08:56;;;;;;;10.38;9.15;;;;;;;27.53;45.58;98749.72;5122223;28;20039;-75
2023/09/12 12:11:23;;;;;;;10.63;9.63;;;;;;;27.46;46.06;98750.56;5122645;28;20044;-75
2023/09/12 12:13:51;;;;;;;13.73;10.25;;;;;;;27.36;47.09;98744.69;5123375;28;20043;-75
2023/09/12 12:16:19;;;;;;;11.07;10.02;;;;;;;27.24;47.52;98715.59;5122264;28;20204;-75
2023/09/12 12:18:46;;;;;;;12.07;9.45;;;;;;;27.42;45.55;98737.59;5122890;28;20040;-75
2023/09/12 12:21:13;;;;;;;10.75;9.65;;;;;;;27.32;48.66;98710.78;5121981;28;20043;-75
2023/09/12 12:23:40;;;;;;;9.90;8.90;;;;;;;27.55;48.25;98726.72;5123134;28;20059;-74
2023/09/12 12:26:10;;;;;;;14.43;9.43;;;;;;;27.62;47.38;98729.47;5121590;28;20042;-76
2023/09/12 12:28:39;;;;;;;13.68;10.02;;;;;;;26.87;42.64;98590.00;5122505;28;20058;-79
2023/09/12 12:31:06;;;;;;;10.52;9.45;;;;;;;27.70;44.60;98767.38;5122981;28;20054;-75
2023/09/12 12:33:34;;;;;;;12.60;9.18;;;;;;;27.74;42.88;98723.19;5122149;28;20048;-74
2023/09/12 12:36:03;;;;;;;10.20;9.15;;;;;;;27.65;44.53;98707.28;5123119;28;20040;-75
2023/09/12 12:38:34;;;;;;;12.18;9.23;;;;;;;27.93;41.40;98724.25;5122022;28;20157;-74
2023/09/12 12:41:00;;;;;;;10.13;8.82;;;;;;;27.99;41.90;98728.84;5121982;28;20040;-75
2023/09/12 12:43:27;;;;;;;9.90;9.00;;;;;;;27.90;44.77;98723.84;5122338;28;20043;-75
2023/09/12 12:45:55;;;;;;;10.65;9.20;;;;;;;27.88;46.66;98721.31;5122089;28;20068;-75
2023/09/12 12:48:31;;;;;;;10.60;8.90;;;;;;;27.92;44.06;98719.84;5121773;28;20055;-75
2023/09/12 12:51:00;;;;;;;10.18;9.23;;;;;;;27.95;45.15;98715.88;5121976;28;20040;-75
2023/09/12 12:53:40;;;;;;;11.32;10.13;;;;;;;27.92;46.05;98700.78;5120940;28;20036;-75
2023/09/12 12:56:06;;;;;;;10.75;9.48;;;;;;;27.97;46.41;98702.88;5122337;28;20051;-75
2023/09/12 12:58:34;;;;;;;9.68;8.68;;;;;;;27.93;46.37;98707.91;5121578;28;20048;-75
2023/09/12 13:01:02;;;;;;;13.98;9.80;;;;;;;28.02;43.42;98712.09;5121899;28;20051;-75
2023/09/12 13:03:30;;;;;;;9.50;8.48;;;;;;;28.11;43.93;98716.25;5121607;28;20044;-76
2023/09/12 13:05:57;;;;;;;9.45;8.43;;;;;;;28.07;43.24;98709.56;5121643;28;20047;-77
2023/09/12 13:08:25;;;;;;;14.40;8.48;;;;;;;27.88;44.67;98683.19;5118344;28;20047;-74
2023/09/12 13:10:53;;;;;;;9.50;8.50;;;;;;;28.15;42.98;98707.66;5107814;28;20040;-75
2023/09/12 13:13:22;;;;;;;9.63;8.60;;;;;;;28.06;43.84;98702.44;5107664;28;20199;-75
2023/09/12 13:15:49;;;;;;;12.90;8.43;;;;;;;27.71;44.86;98655.56;5107311;28;20112;-75
2023/09/12 13:18:16;;;;;;;9.65;8.10;;;;;;;28.13;43.36;98702.44;5106720;28;20036;-77
2023/09/12 13:20:42;;;;;;;16.40;9.35;;;;;;;28.22;42.23;98708.47;5107653;28;20044;-77
2023/09/12 13:23:09;;;;;;;9.18;8.10;;;;;;;27.91;42.59;98655.56;5107564;28;20052;-77
2023/09/12 13:25:39;;;;;;;11.18;8.07;;;;;;;28.27;41.92;98697.78;5108026;28;20048;-78
2023/09/12 13:28:06;;;;;;;10.70;8.82;;;;;;;28.31;41.76;98693.59;5107751;28;20059;-77
2023/09/12 13:30:33;;;;;;;10.48;8.10;;;;;;;28.24;42.87;98700.94;5107029;28;20044;-76
2023/09/12 13:33:00;;;;;;;9.65;8.32;;;;;;;27.95;43.92;98659.53;5107726;28;20089;-76
2023/09/12 13:35:27;;;;;;;10.13;8.40;;;;;;;28.23;43.20;98689.19;5108116;28;20043;-76
2023/09/12 13:37:53;;;;;;;9.93;8.63;;;;;;;28.16;44.00;98682.09;5107786;28;20103;-77
2023/09/12 13:40:21;;;;;;;9.82;8.90;;;;;;;28.18;43.58;98696.34;5107354;28;20047;-77
2023/09/12 13:42:49;;;;;;;10.27;8.73;;;;;;;28.23;42.67;98693.81;5107014;28;20226;-77
2023/09/12 13:45:16;;;;;;;9.13;8.05;;;;;;;28.21;43.87;98694.03;5106729;28;20043;-76
2023/09/12 13:47:43;;;;;;;10.77;8.15;;;;;;;28.18;43.41;98682.72;5107055;28;20043;-76
2023/09/12 13:50:10;;;;;;;10.00;8.60;;;;;;;28.18;44.54;98683.56;5107279;28;20044;-76
2023/09/12 13:52:37;;;;;;;12.50;9.10;;;;;;;28.29;41.43;98682.06;5107643;28;20048;-77
2023/09/12 13:55:04;;;;;;;15.43;8.32;;;;;;;28.35;41.44;98682.03;5107941;28;20292;-77
2023/09/12 13:57:31;;;;;;;9.70;8.73;;;;;;;28.44;42.80;98688.94;5106161;28;20059;-76
2023/09/12 14:00:00;;;;;;;13.05;8.77;;;;;;;28.44;41.72;98678.06;5106420;28;20050;-76
2023/09/12 14:02:27;;;;;;;12.38;7.82;;;;;;;28.38;42.31;98684.34;5107466;28;20107;-76
2023/09/12 14:04:55;;;;;;;12.10;8.07;;;;;;;28.46;40.87;98686.00;5105730;28;20246;-76
2023/09/12 14:07:22;;;;;;;9.60;8.00;;;;;;;28.43;43.35;98684.56;5106273;28;20047;-77
2023/09/12 14:09:51;;;;;;;9.50;8.52;;;;;;;28.14;43.68;98625.09;5107185;28;20239;-76
2023/09/12 14:12:18;;;;;;;12.93;8.75;;;;;;;28.38;46.23;98676.16;5106269;28;20036;-77
2023/09/12 14:14:48;;;;;;;9.43;8.52;;;;;;;28.37;44.60;98676.38;5107520;28;20048;-77
2023/09/12 14:17:17;;;;;;;11.90;8.93;;;;;;;28.36;44.41;98678.25;5106811;28;20119;-77
2023/09/12 14:19:46;;;;;;;10.15;8.32;;;;;;;27.95;44.51;98628.72;5105758;28;20357;-75
2023/09/12 14:22:15;;;;;;;11.32;9.18;;;;;;;28.29;45.45;98680.16;5106297;28;20040;-76
2023/09/12 14:24:43;;;;;;;13.70;8.93;;;;;;;28.35;41.28;98682.03;5105464;28;20051;-77
2023/09/12 14:27:10;;;;;;;11.25;8.43;;;;;;;28.42;41.63;98685.59;5106694;27;20119;-77
2023/09/12 14:29:39;;;;;;;11.20;8.07;;;;;;;28.46;40.48;98682.44;5106853;28;20258;-77
2023/09/12 14:32:07;;;;;;;10.98;8.35;;;;;;;28.45;41.21;98684.34;5105898;28;20072;-77
2023/09/12 14:34:37;;;;;;;8.90;7.50;;;;;;;28.27;41.05;98659.63;5105546;28;20316;-78
2023/09/12 14:37:05;;;;;;;8.95;8.15;;;;;;;28.38;42.05;98680.78;5106013;28;20090;-77
2023/09/12 14:39:33;;;;;;;10.02;8.90;;;;;;;28.33;42.13;98681.41;5106687;28;20036;-77
2023/09/12 14:42:02;;;;;;;8.65;7.82;;;;;;;28.29;43.07;98685.63;5107048;28;20059;-78
2023/09/12 14:44:32;;;;;;;9.98;7.75;;;;;;;28.32;42.46;98687.06;5105387;28;20322;-78
2023/09/12 14:47:02;;;;;;;11.27;9.27;;;;;;;28.29;41.52;98685.63;5105993;28;20059;-78
2023/09/12 14:49:30;;;;;;;10.15;8.82;;;;;;;28.30;41.79;98681.84;5105388;28;20036;-77
2023/09/12 14:52:00;;;;;;;10.65;8.13;;;;;;;28.26;41.75;98675.16;5107595;28;20103;-79
2023/09/12 14:54:30;;;;;;;8.13;7.30;;;;;;;28.20;41.05;98678.72;5108482;28;20036;-79
2023/09/12 14:56:57;;;;;;;9.88;7.93;;;;;;;28.21;41.94;98683.13;5108151;28;20050;-79
2023/09/12 14:59:25;;;;;;;8.90;8.05;;;;;;;28.19;43.09;98684.41;5108198;28;20040;-79
2023/09/12 15:01:53;;;;;;;12.30;8.85;;;;;;;28.16;44.04;98684.81;5108065;28;20044;-79
2023/09/12 15:04:20;;;;;;;8.98;8.07;;;;;;;28.15;43.72;98688.59;5107881;28;20044;-79
2023/09/12 15:06:48;;;;;;;13.40;7.20;;;;;;;28.11;42.74;98685.47;5108260;28;20052;-79
2023/09/12 15:09:17;;;;;;;9.18;8.27;;;;;;;28.09;44.00;98690.28;5107790;28;20090;-78
2023/09/12 15:11:44;;;;;;;9.10;8.30;;;;;;;28.07;44.80;98685.06;5107520;28;20311;-79
2023/09/12 15:14:12;;;;;;;11.40;8.40;;;;;;;28.02;42.62;98687.56;5108598;28;20040;-79
2023/09/12 15:16:39;;;;;;;10.70;8.18;;;;;;;27.17;43.63;98539.59;5107435;28;20044;-79
2023/09/12 15:19:06;;;;;;;10.10;8.27;;;;;;;28.03;42.92;98681.06;5106832;28;20288;-79
2023/09/12 15:21:36;;;;;;;9.18;8.05;;;;;;;28.01;42.38;98680.47;5107281;28;20067;-79
2023/09/12 15:24:03;;;;;;;10.88;8.02;;;;;;;27.99;42.26;98684.44;5106666;28;20312;-78
2023/09/12 15:26:32;;;;;;;12.63;7.80;;;;;;;27.58;41.49;98622.88;5106571;28;20173;-79
2023/09/12 15:29:01;;;;;;;8.38;7.10;;;;;;;28.00;41.48;98683.38;5106987;28;20046;-79
2023/09/12 15:31:28;;;;;;;16.50;8.15;;;;;;;27.98;41.75;98686.31;5106618;28;20047;-79
2023/09/12 15:33:57;;;;;;;8.82;7.93;;;;;;;28.00;40.58;98683.38;5105820;28;20044;-79
2023/09/12 15:36:25;;;;;;;16.27;8.38;;;;;;;27.97;41.39;98676.47;5106712;28;20087;-78
2023/09/12 15:38:53;;;;;;;9.70;7.30;;;;;;;27.96;42.21;98682.97;5088092;28;20039;-79
2023/09/12 15:41:20;;;;;;;12.30;8.50;;;;;;;27.94;42.38;98676.91;5104973;28;20050;-79
2023/09/12 15:43:49;;;;;;;12.27;9.13;;;;;;;27.91;41.33;98682.78;5104990;28;20054;-79
2023/09/12 15:46:17;;;;;;;9.82;7.93;;;;;;;27.89;41.82;98673.16;5106255;28;20044;-79
2023/09/12 15:48:45;;;;;;;8.75;7.22;;;;;;;27.88;43.08;98672.31;5106007;28;20185;-79
2023/09/12 15:51:13;;;;;;;9.38;7.30;;;;;;;27.86;43.29;98677.13;5105046;28;20040;-79
2023/09/12 15:53:41;;;;;;;9.13;7.45;;;;;;;27.84;43.62;98672.94;5105411;28;20058;-79
2023/09/12 15:56:08;;;;;;;10.32;7.45;;;;;;;27.80;44.37;98675.22;5104888;28;20039;-79
2023/09/12 15:58:35;;;;;;;10.50;7.65;;;;;;;27.78;44.05;98667.25;5105418;28;20296;-79
2023/09/12 16:01:04;;;;;;;9.77;7.30;;;;;;;27.75;43.19;98672.28;5105473;28;20044;-79
2023/09/12 16:03:31;;;;;;;14.93;8.10;;;;;;;27.14;42.95;98588.13;5106446;28;20102;-79
2023/09/12 16:05:58;;;;;;;9.75;7.43;;;;;;;27.73;43.38;98675.22;5106210;28;20039;-79
2023/09/12 16:08:26;;;;;;;8.02;7.20;;;;;;;27.73;43.40;98679.84;5105675;28;20063;-79
2023/09/12 16:10:54;;;;;;;9.00;7.38;;;;;;;27.68;43.60;98668.75;5104979;28;20040;-79
2023/09/12 16:13:22;;;;;;;9.30;7.70;;;;;;;27.66;44.14;98674.41;5106146;28;20105;-79
2023/09/12 16:15:50;;;;;;;10.93;8.10;;;;;;;27.64;43.78;98676.50;5106113;28;20048;-79
2023/09/12 16:18:20;;;;;;;11.27;6.97;;;;;;;27.40;43.40;98641.72;5105642;28;20043;-79
2023/09/12 16:20:47;;;;;;;8.95;7.50;;;;;;;27.61;43.67;98678.81;5106998;28;20039;-79
2023/09/12 16:23:15;;;;;;;8.63;7.35;;;;;;;27.57;43.30;98677.50;5107220;28;20285;-79
2023/09/12 16:25:42;;;;;;;9.35;8.32;;;;;;;27.57;44.17;98669.34;5106278;28;20101;-79
2023/09/12 16:28:10;;;;;;;8.73;7.90;;;;;;;27.53;44.35;98671.66;5106136;28;20070;-79
2023/09/12 16:30:39;;;;;;;8.52;7.35;;;;;;;27.53;44.38;98678.97;5105654;28;20078;-79
2023/09/12 16:33:07;;;;;;;10.15;8.00;;;;;;;27.53;44.51;98678.97;5105746;28;20047;-79
2023/09/12 16:35:36;;;;;;;9.70;7.90;;;;;;;27.49;46.06;98676.69;5106279;28;20100;-79
2023/09/12 16:38:04;;;;;;;11.48;8.43;;;;;;;27.46;44.76;98676.25;5105424;28;20044;-79
2023/09/12 16:40:32;;;;;;;11.82;9.63;;;;;;;27.42;44.43;98680.44;5106685;28;20078;-79
2023/09/12 16:42:59;;;;;;;9.95;8.98;;;;;;;27.40;44.74;98672.50;5105398;28;20036;-79
2023/09/12 16:45:28;;;;;;;9.80;8.60;;;;;;;27.41;45.25;98679.59;5109062;28;20052;-79
2023/09/12 16:47:55;;;;;;;11.68;8.85;;;;;;;27.38;45.35;98680.03;5109974;28;20089;-79
2023/09/12 16:50:24;;;;;;;9.02;7.93;;;;;;;27.37;45.58;98675.63;5110819;28;20339;-79
2023/09/12 16:52:53;;;;;;;10.98;9.10;;;;;;;27.37;45.53;98677.50;5111041;28;20097;-79
2023/09/12 16:55:21;;;;;;;8.63;7.78;;;;;;;27.34;45.52;98681.47;5109611;28;20059;-79
2023/09/12 16:57:50;;;;;;;11.75;8.95;;;;;;;27.32;45.88;98677.31;5107644;28;20059;-79
2023/09/12 17:00:17;;;;;;;10.18;8.57;;;;;;;27.22;44.62;98672.25;5110320;28;20082;-79
2023/09/12 17:02:45;;;;;;;9.50;8.55;;;;;;;27.26;46.50;98678.13;5110304;28;20047;-79
2023/09/12 17:05:16;;;;;;;10.80;8.85;;;;;;;27.24;44.87;98672.06;5111152;28;20051;-79
2023/09/12 17:07:45;;;;;;;9.77;8.10;;;;;;;27.19;44.49;98670.78;5110847;28;20052;-79
2023/09/12 17:10:14;;;;;;;11.88;9.77;;;;;;;26.80;43.78;98619.88;5111454;28;20234;-79
2023/09/12 17:12:43;;;;;;;10.02;9.07;;;;;;;27.11;44.00;98665.53;5110604;28;20039;-79
2023/09/12 17:15:14;;;;;;;8.85;7.95;;;;;;;27.13;44.72;98682.47;5110352;28;20119;-79
2023/09/12 17:17:41;;;;;;;10.05;8.85;;;;;;;27.15;45.23;98676.84;5111584;28;20039;-79
2023/09/12 17:20:10;;;;;;;11.65;8.00;;;;;;;27.07;45.19;98680.59;5111101;28;20181;-79
2023/09/12 17:22:37;;;;;;;8.43;7.53;;;;;;;27.11;44.76;98681.84;5110984;28;20051;-79
2023/09/12 17:25:07;;;;;;;9.60;8.15;;;;;;;27.06;44.94;98678.91;5111168;28;20184;-79
2023/09/12 17:27:36;;;;;;;10.10;8.32;;;;;;;27.02;44.68;98682.25;5111628;28;20276;-79
2023/09/12 17:30:06;;;;;;;8.65;7.75;;;;;;;27.03;45.26;98679.31;5116188;28;20052;-79
2023/09/12 17:32:35;;;;;;;9.23;7.57;;;;;;;27.00;46.17;98678.91;5097079;28;20303;-79
2023/09/12 17:35:03;;;;;;;9.75;7.60;;;;;;;27.03;47.46;98678.47;5110666;28;20180;-79
2023/09/12 17:37:31;;;;;;;8.30;7.50;;;;;;;26.96;44.94;98678.47;5110119;28;20292;-79
2023/09/12 17:39:59;;;;;;;9.05;8.23;;;;;;;26.94;44.75;98677.00;5110196;28;20203;-79
2023/09/12 17:42:30;;;;;;;10.63;9.52;;;;;;;26.86;44.86;98678.03;5110979;28;20044;-79
2023/09/12 17:45:01;;;;;;;13.63;8.93;;;;;;;26.93;47.15;98684.31;5110401;28;20070;-79
2023/09/12 17:47:29;;;;;;;8.70;7.90;;;;;;;26.86;46.11;98683.47;5110308;28;20043;-79
2023/09/12 17:50:00;;;;;;;10.40;8.63;;;;;;;26.82;46.99;98696.63;5093540;28;20031;-79
2023/09/12 17:52:28;;;;;;;9.88;8.73;;;;;;;26.82;46.27;98685.75;5110770;28;20048;-79
2023/09/12 17:54:56;;;;;;;11.63;8.40;;;;;;;26.79;45.59;98682.59;5106920;28;20047;-78
2023/09/12 17:57:24;;;;;;;9.23;8.05;;;;;;;26.42;46.03;98632.28;5108087;28;20059;-79
2023/09/12 17:59:55;;;;;;;10.45;8.98;;;;;;;26.73;46.15;98691.59;5109986;28;20173;-79
2023/09/12 18:02:28;;;;;;;9.60;8.23;;;;;;;26.73;47.59;98686.97;5110918;28;20062;-79
2023/09/12 18:04:55;;;;;;;9.20;8.27;;;;;;;26.79;47.18;98697.03;5111253;28;20051;-79
2023/09/12 18:07:25;;;;;;;10.02;9.13;;;;;;;26.74;46.70;98687.81;5109898;28;20344;-79
2023/09/12 18:09:53;;;;;;;12.15;9.43;;;;;;;26.75;49.43;98697.66;5109176;28;20048;-79
2023/09/12 18:12:21;;;;;;;10.65;9.13;;;;;;;26.55;48.10;98667.66;5110261;28;20050;-79
2023/09/12 18:14:52;;;;;;;14.43;9.13;;;;;;;26.57;44.85;98702.78;5107420;28;20056;-78
2023/09/12 18:17:20;;;;;;;11.90;8.90;;;;;;;26.58;48.12;98699.03;5106487;28;20040;-77
2023/09/12 18:19:50;;;;;;;10.88;8.65;;;;;;;26.55;47.16;98697.53;5109105;28;20051;-77
2023/09/12 18:22:17;;;;;;;11.38;9.55;;;;;;;26.58;48.16;98704.44;5107170;28;20075;-77
2023/09/12 18:24:46;;;;;;;10.60;9.50;;;;;;;26.55;47.93;98703.81;5106287;28;20050;-76
2023/09/12 18:27:13;;;;;;;9.95;8.95;;;;;;;26.39;49.91;98673.44;5108321;28;20222;-79
2023/09/12 18:29:44;;;;;;;11.20;10.10;;;;;;;26.59;50.46;98706.97;5110300;28;20036;-80
2023/09/12 18:32:12;;;;;;;10.05;8.85;;;;;;;26.58;50.91;98705.28;5109619;28;20108;-79
2023/09/12 18:34:41;;;;;;;11.57;10.38;;;;;;;26.46;47.55;98706.91;5109745;28;20254;-80
2023/09/12 18:37:13;;;;;;;12.65;10.68;;;;;;;26.52;50.19;98711.53;5109103;28;20048;-79
2023/09/12 18:39:44;;;;;;;12.55;11.25;;;;;;;26.53;50.07;98705.91;5108951;28;20048;-76
2023/09/12 18:42:12;;;;;;;11.10;9.93;;;;;;;26.50;51.17;98706.31;5107381;28;20097;-76
2023/09/12 18:44:40;;;;;;;18.75;11.57;;;;;;;26.52;52.00;98715.09;5106647;28;20062;-75
2023/09/12 18:47:14;;;;;;;16.50;14.80;;;;;;;26.49;52.42;98714.66;5106817;28;20040;-77
2023/09/12 18:49:42;;;;;;;17.65;13.38;;;;;;;26.48;52.83;98708.38;5106624;28;20048;-77
2023/09/12 18:52:12;;;;;;;13.20;11.93;;;;;;;26.46;52.74;98712.34;5106395;28;20040;-76
2023/09/12 18:54:40;;;;;;;14.93;13.27;;;;;;;26.41;52.25;98703.97;5107001;28;20119;-76
2023/09/12 18:57:12;;;;;;;16.48;12.65;;;;;;;26.36;51.49;98715.44;5106771;28;20052;-76
2023/09/12 18:59:46;;;;;;;14.63;13.15;;;;;;;26.37;52.84;98706.25;5106171;28;20059;-76
2023/09/12 19:02:16;;;;;;;14.52;12.95;;;;;;;26.31;52.12;98708.94;5106622;28;20060;-77
2023/09/12 19:04:43;;;;;;;12.40;11.23;;;;;;;26.26;53.37;98709.53;5105654;28;20036;-76
2023/09/12 19:07:14;;;;;;;13.43;9.68;;;;;;;26.18;52.64;98704.25;5105650;28;20036;-76
2023/09/12 19:09:57;;;;;;;12.13;10.23;;;;;;;26.23;53.13;98709.94;5088681;28;20032;-76
2023/09/12 19:12:28;;;;;;;13.15;11.77;;;;;;;26.23;52.76;98723.50;5105374;28;20044;-76
2023/09/12 19:14:56;;;;;;;13.90;12.50;;;;;;;26.23;54.03;98729.78;5105908;28;20150;-76
2023/09/12 19:17:27;;;;;;;13.27;11.98;;;;;;;26.21;53.73;98734.56;5089116;28;20057;-76
2023/09/12 19:20:03;;;;;;;14.30;12.18;;;;;;;24.00;53.92;98377.97;5080344;28;20060;-76
2023/09/12 19:22:36;;;;;;;14.43;12.95;;;;;;;26.16;53.78;98730.78;5105824;28;20248;-76
2023/09/12 19:25:07;;;;;;;13.88;12.45;;;;;;;25.78;53.37;98695.81;5106517;28;20066;-77
2023/09/12 19:27:36;;;;;;;15.45;13.82;;;;;;;26.07;56.59;98737.41;5105456;28;20044;-76
2023/09/12 19:30:10;;;;;;;15.05;11.95;;;;;;;26.04;56.90;98735.09;5105376;28;20047;-76
2023/09/12 19:32:41;;;;;;;15.18;13.73;;;;;;;26.03;55.17;98738.84;5105974;28;20067;-76
2023/09/12 19:35:11;;;;;;;14.65;13.25;;;;;;;25.44;55.98;98647.78;5104975;28;20047;-75
2023/09/12 19:37:42;;;;;;;14.18;12.85;;;;;;;25.61;55.60;98680.88;5105920;28;20300;-76
2023/09/12 19:40:14;;;;;;;17.67;14.02;;;;;;;25.80;55.53;98739.88;5105833;28;20296;-75
2023/09/12 19:42:42;;;;;;;19.63;14.48;;;;;;;25.70;55.11;98717.69;5105758;28;20062;-76
2023/09/12 19:45:11;;;;;;;14.55;13.07;;;;;;;25.83;55.12;98744.91;5105793;28;20044;-76
2023/09/12 19:47:39;;;;;;;14.55;13.00;;;;;;;25.68;55.31;98736.03;5105218;28;20036;-74
2023/09/12 19:50:18;;;;;;;15.45;13.95;;;;;;;25.01;55.62;98617.13;5106467;28;20040;-75
2023/09/12 19:52:49;;;;;;;14.27;12.85;;;;;;;25.72;55.81;98750.03;5107340;28;20292;-74
2023/09/12 19:55:17;;;;;;;15.88;14.27;;;;;;;25.67;55.93;98749.78;5104162;28;20308;-74
2023/09/12 19:57:45;;;;;;;16.77;15.07;;;;;;;25.63;56.13;98756.66;5104589;28;20052;-75
2023/09/12 20:00:15;;;;;;;18.42;14.55;;;;;;;25.58;56.20;98758.06;5105552;28;20193;-75
2023/09/12 20:02:43;;;;;;;16.42;14.80;;;;;;;25.37;55.69;98733.66;5105416;28;20060;-74
2023/09/12 20:05:11;;;;;;;18.13;15.82;;;;;;;25.52;56.03;98763.44;5105523;28;20051;-74
2023/09/12 20:07:40;;;;;;;19.05;16.92;;;;;;;25.23;56.08;98723.69;5105558;28;20123;-74
2023/09/12 20:10:11;;;;;;;18.38;16.10;;;;;;;25.27;55.95;98739.38;5105830;28;20050;-75
2023/09/12 20:12:40;;;;;;;22.90;17.88;;;;;;;25.40;56.06;98763.13;5104688;28;20203;-74
2023/09/12 20:15:10;;;;;;;19.08;16.70;;;;;;;25.37;55.74;98768.94;5105720;28;20044;-74
2023/09/12 20:17:37;;;;;;;19.33;15.45;;;;;;;25.06;55.35;98735.81;5104927;28;20239;-74
2023/09/12 20:20:05;;;;;;;17.88;15.98;;;;;;;25.02;55.55;98729.94;5107228;28;20047;-74
2023/09/12 20:22:34;;;;;;;19.33;15.63;;;;;;;24.95;55.73;98721.69;5092009;28;20068;-74
2023/09/12 20:25:03;;;;;;;18.52;16.25;;;;;;;24.48;55.20;98651.72;5109887;28;20062;-73
2023/09/12 20:27:31;;;;;;;19.52;16.65;;;;;;;25.14;56.20;98763.66;5109389;28;20070;-73
2023/09/12 20:30:00;;;;;;;17.17;15.57;;;;;;;24.99;55.89;98743.00;5109550;28;20033;-74
2023/09/12 20:32:30;;;;;;;19.05;14.63;;;;;;;25.05;55.91;98772.94;5091947;28;20081;-74
2023/09/12 20:35:00;;;;;;;18.23;16.33;;;;;;;25.04;56.34;98763.13;5108552;28;20058;-74
2023/09/12 20:37:28;;;;;;;18.52;16.55;;;;;;;25.04;55.68;98765.00;5109370;28;20054;-73
2023/09/12 20:39:57;;;;;;;21.00;16.50;;;;;;;24.26;56.28;98664.38;5108821;28;20284;-76
2023/09/12 20:42:25;;;;;;;18.88;16.63;;;;;;;24.96;56.71;98763.19;5109385;28;20366;-75
2023/09/12 20:44:56;;;;;;;18.92;16.25;;;;;;;24.91;55.67;98763.78;5109283;28;20059;-73
2023/09/12 20:47:23;;;;;;;17.38;15.70;;;;;;;24.85;55.98;98755.56;5109141;28;20048;-74
2023/09/12 20:49:58;;;;;;;17.80;15.15;;;;;;;24.83;56.00;98754.91;5109491;28;20195;-76
2023/09/12 20:52:26;;;;;;;17.73;15.60;;;;;;;24.82;56.33;98747.81;5108104;28;20040;-74
2023/09/12 20:54:54;;;;;;;19.20;16.08;;;;;;;24.79;55.66;98754.44;5108148;28;20085;-75
2023/09/12 20:57:22;;;;;;;18.25;16.08;;;;;;;24.50;56.28;98711.97;5108680;28;20070;-75
2023/09/12 20:59:49;;;;;;;17.75;15.45;;;;;;;24.75;56.71;98750.44;5109148;28;20058;-75
2023/09/12 21:02:18;;;;;;;16.95;15.15;;;;;;;24.72;56.40;98753.53;5108872;28;20101;-75
2023/09/12 21:04:45;;;;;;;19.02;16.30;;;;;;;23.99;56.70;98662.34;5109406;28;20200;-76
2023/09/12 21:07:12;;;;;;;17.48;15.10;;;;;;;24.67;56.36;98749.72;5108990;28;20043;-75
2023/09/12 21:09:39;;;;;;;16.15;14.63;;;;;;;24.41;56.73;98712.25;5108921;28;20043;-75
2023/09/12 21:12:06;;;;;;;16.92;15.00;;;;;;;24.54;56.45;98743.06;5107755;28;20047;-75
2023/09/12 21:14:34;;;;;;;17.15;15.35;;;;;;;24.56;57.13;98751.84;5108768;28;20074;-75
2023/09/12 21:17:00;;;;;;;16.63;14.50;;;;;;;24.55;56.93;98744.75;5107694;28;20053;-75
2023/09/12 21:19:28;;;;;;;18.80;15.07;;;;;;;24.54;57.11;98750.34;5108131;28;20051;-75
2023/09/12 21:21:55;;;;;;;16.00;13.65;;;;;;;23.58;56.73;98591.56;5108811;28;20051;-75
2023/09/12 21:24:22;;;;;;;14.98;13.43;;;;;;;24.46;57.19;98743.16;5108666;28;20043;-75
2023/09/12 21:26:49;;;;;;;14.00;12.55;;;;;;;24.48;56.98;98742.97;5108647;28;20174;-75
2023/09/12 21:29:17;;;;;;;15.32;13.80;;;;;;;24.43;56.73;98734.56;5108487;28;20047;-76
2023/09/12 21:31:46;;;;;;;15.05;13.70;;;;;;;24.04;58.07;98683.44;5107924;28;20036;-75
2023/09/12 21:34:13;;;;;;;16.40;12.88;;;;;;;24.38;57.52;98737.00;5107381;28;20032;-74
2023/09/12 21:36:41;;;;;;;13.40;11.32;;;;;;;24.33;57.34;98732.16;5108085;28;20051;-74
2023/09/12 21:39:08;;;;;;;14.07;12.02;;;;;;;24.33;57.62;98730.28;5108504;28;20074;-75
2023/09/12 21:41:34;;;;;;;13.18;11.48;;;;;;;24.07;57.79;98686.59;5108628;28;20045;-75
2023/09/12 21:44:01;;;;;;;14.10;12.73;;;;;;;24.29;57.21;98726.28;5107367;28;20051;-75
2023/09/12 21:46:28;;;;;;;12.75;11.48;;;;;;;24.27;57.98;98727.47;5107500;28;20358;-75
2023/09/12 21:48:54;;;;;;;14.18;12.15;;;;;;;24.27;57.22;98727.47;5108933;28;20047;-75
2023/09/12 21:51:21;;;;;;;14.18;12.68;;;;;;;22.12;57.72;98374.09;5108141;28;20048;-75
2023/09/12 21:53:50;;;;;;;15.48;12.50;;;;;;;23.31;58.20;98579.53;5107773;28;20044;-74
2023/09/12 21:56:17;;;;;;;13.55;11.80;;;;;;;24.16;57.75;98722.53;5108124;28;20044;-74
2023/09/12 21:58:44;;;;;;;12.20;10.93;;;;;;;23.94;57.58;98697.19;5107989;28;20066;-73
2023/09/12 22:01:12;;;;;;;15.55;12.50;;;;;;;24.09;57.42;98724.31;5107464;28;20296;-75
2023/09/12 22:03:39;;;;;;;14.13;11.88;;;;;;;24.09;57.88;98721.59;5107088;28;20251;-75
2023/09/12 22:06:07;;;;;;;12.88;11.65;;;;;;;23.81;58.59;98678.06;5090401;28;20044;-75
2023/09/12 22:08:34;;;;;;;17.75;12.02;;;;;;;24.02;58.13;98723.38;5107662;28;20043;-75
2023/09/12 22:11:02;;;;;;;14.20;12.05;;;;;;;23.98;57.90;98722.91;5106736;28;20043;-74
2023/09/12 22:13:31;;;;;;;12.57;11.27;;;;;;;23.61;58.12;98669.66;5107855;28;20101;-74
2023/09/12 22:15:57;;;;;;;13.43;12.13;;;;;;;23.94;58.40;98727.81;5106538;28;20101;-74
2023/09/12 22:18:25;;;;;;;13.07;11.85;;;;;;;23.91;58.33;98728.19;5107429;28;20036;-74
2023/09/12 22:20:52;;;;;;;13.73;12.10;;;;;;;23.89;58.23;98729.38;5107703;28;20067;-74
2023/09/12 22:23:18;;;;;;;14.05;12.35;;;;;;;23.86;58.38;98730.59;5106557;28;20047;-74
2023/09/12 22:25:45;;;;;;;14.80;12.80;;;;;;;23.67;58.95;98698.66;5106497;28;20040;-74
2023/09/12 22:28:14;;;;;;;13.30;12.07;;;;;;;23.82;58.87;98731.16;5107535;28;20052;-74
2023/09/12 22:30:41;;;;;;;14.50;12.90;;;;;;;23.78;58.86;98730.69;5106564;28;20036;-74
2023/09/12 22:33:11;;;;;;;13.68;12.30;;;;;;;23.75;58.80;98735.63;5107444;28;20100;-74
2023/09/12 22:35:37;;;;;;;14.02;12.48;;;;;;;23.49;58.73;98698.16;5107115;28;20047;-77
2023/09/12 22:38:04;;;;;;;13.52;12.13;;;;;;;23.72;58.52;98738.69;5107234;28;20085;-74
2023/09/12 22:40:31;;;;;;;16.80;12.90;;;;;;;23.69;58.23;98729.06;5107817;28;20036;-74
2023/09/12 22:42:58;;;;;;;13.13;11.88;;;;;;;23.66;58.71;98730.28;5106904;28;20051;-75
2023/09/12 22:45:26;;;;;;;14.27;12.80;;;;;;;23.58;58.78;98718.69;5107018;28;20058;-75
2023/09/12 22:47:52;;;;;;;13.10;11.85;;;;;;;23.63;59.56;98727.94;5107065;28;20040;-75
2023/09/12 22:50:19;;;;;;;16.70;13.32;;;;;;;23.60;59.00;98728.31;5107734;28;20046;-74
2023/09/12 22:52:46;;;;;;;14.35;12.77;;;;;;;23.31;59.28;98684.97;5106486;28;20094;-74
2023/09/12 22:55:13;;;;;;;14.60;13.02;;;;;;;23.56;59.63;98736.97;5107298;28;20044;-75
2023/09/12 22:57:40;;;;;;;14.35;12.77;;;;;;;23.56;58.93;98731.56;5107474;28;20229;-74
2023/09/12 23:00:08;;;;;;;14.55;13.05;;;;;;;23.52;58.64;98733.78;5106982;28;20040;-75
2023/09/12 23:02:37;;;;;;;14.75;13.23;;;;;;;23.51;60.00;98732.09;5106216;28;20061;-75
2023/09/12 23:05:04;;;;;;;16.67;13.90;;;;;;;23.24;59.65;98700.19;5107089;28;20092;-75
2023/09/12 23:07:31;;;;;;;15.75;14.25;;;;;;;23.46;59.82;98730.97;5105842;28;20090;-73
2023/09/12 23:09:58;;;;;;;14.02;12.48;;;;;;;23.46;59.29;98729.09;5106987;28;20052;-74
2023/09/12 23:12:25;;;;;;;15.18;12.57;;;;;;;23.45;59.20;98732.00;5106523;28;20093;-74
2023/09/12 23:14:54;;;;;;;13.88;12.57;;;;;;;23.42;59.49;98730.50;5106826;28;20051;-75
2023/09/12 23:17:20;;;;;;;14.27;12.88;;;;;;;23.41;59.84;98736.91;5105499;28;20124;-75
2023/09/12 23:19:49;;;;;;;14.90;12.68;;;;;;;23.36;59.28;98726.66;5106941;28;20051;-75
2023/09/12 23:22:15;;;;;;;15.55;12.23;;;;;;;23.35;59.20;98722.25;5106974;28;20044;-75
2023/09/12 23:24:42;;;;;;;14.02;12.60;;;;;;;23.30;59.49;98719.25;5106856;28;20284;-75
2023/09/12 23:27:09;;;;;;;12.93;11.50;;;;;;;23.25;59.40;98718.94;5106554;28;20047;-75